Terminal Aerodrome Forecast
Issued by NWS Norman, OK

Current Version | Previous Version | Text Only | Print | Product List | Glossary On
Versions: 1 2 3 4 5 6 7 8 9 10 11 12
000
FTUS44 KOUN 281722
TAFSPS
TAF
KSPS 281722Z 2818/0118 21015G22KT P6SM BKN150
     FM282300 21012KT P6SM SCT150
     FM010400 27014G22KT P6SM SCT250
     FM010800 34018G26KT P6SM FEW150
     FM011200 35014KT P6SM SKC=

USA.gov is the U.S. government's official web portal to all federal, state and local government web resources and services.